• Join FlightAware (Why Join?)
  • Login
  • US Flag 
05:29PM EDT


 

Airport Tracker/Info


-or-


 

Live Flight TrackerFlight Track Log ✈ PDC2808 ✈ 05-Dec-2013 ✈ ZYMD / MDG - ZYHB / HRB

Flight Track Log - Related Links

Times and Time Zones

All times are in EST time to prevent confusion due to time zone crossing. See the PDC2808 flight status page for this flight to view local times or setup timezone preferences in your user account.

Time Position Orientation Groundspeed Altitude Reporting Facility
EST Latitude Longitude Course Direction KTS MPH feet Rate Location/Type
12:44AM 44.6595 129.1820 296° West  Level Estimated
12:45AM 44.6787 129.1266 296° West  Level Estimated
12:46AM 44.6979 129.0711 296° West  Level Estimated
12:47AM 44.7171 129.0156 296° West  Level Estimated
12:48AM 44.7362 128.9600 296° West  Level Estimated
12:49AM 44.7553 128.9045 296° West  Level Estimated
12:50AM 44.7744 128.8488 296° West  Level Estimated
12:51AM 44.7935 128.7932 296° West  Level Estimated
12:52AM 44.8126 128.7375 296° West  Level Estimated
12:53AM 44.8316 128.6818 296° West  Level Estimated
12:54AM 44.8506 128.6260 296° West  Level Estimated
12:55AM 44.8695 128.5702 296° West  Level Estimated
12:56AM 44.8885 128.5144 296° West  Level Estimated
12:57AM 44.9074 128.4585 296° West  Level Estimated
12:58AM 44.9263 128.4026 296° West  Level Estimated
12:59AM 44.9451 128.3466 295° West  Level Estimated
01:00AM 44.9639 128.2907 295° West  Level Estimated
01:01AM 44.9827 128.2346 295° West  Level Estimated
01:02AM 45.0015 128.1786 295° West  Level Estimated
01:03AM 45.0203 128.1225 295° West  Level Estimated
01:04AM 45.0390 128.0664 295° West  Level Estimated
01:05AM 45.0577 128.0102 295° West  Level Estimated
01:06AM 45.0763 127.9540 295° West  Level Estimated
01:07AM 45.0950 127.8978 295° West  Level Estimated
01:08AM 45.1136 127.8415 295° West  Level Estimated
01:09AM 45.1322 127.7852 295° West  Level Estimated
01:10AM 45.1507 127.7288 295° West  Level Estimated
01:11AM 45.1692 127.6724 295° West  Level Estimated
01:12AM 45.1877 127.6160 295° West  Level Estimated
01:13AM 45.2062 127.5595 295° West  Level Estimated
01:14AM 45.2246 127.5031 295° West  Level Estimated
01:15AM 45.2430 127.4465 295° West  Level Estimated
01:16AM 45.2614 127.3900 295° West  Level Estimated
01:17AM 45.2798 127.3333 295° West  Level Estimated
01:18AM 45.2981 127.2767 295° West  Level Estimated
01:19AM 45.3164 127.2200 295° West  Level Estimated
01:20AM 45.3347 127.1633 295° West  Level Estimated
01:21AM 45.3530 127.1066 295° West  Level Estimated
01:22AM 45.3712 127.0498 295° West  Level Estimated
01:23AM 45.3894 126.9929 295° West  Level Estimated
01:24AM 45.4075 126.9361 294° West  Level Estimated
01:25AM 45.4257 126.8792 294° West  Level Estimated
01:26AM 45.4437 126.8222 294° West  Level Estimated
01:27AM 45.4618 126.7653 294° West  Level Estimated
01:28AM 45.4799 126.7083 294° West  Level Estimated
01:29AM 45.4979 126.6512 294° West  Level Estimated
01:30AM 45.5159 126.5941 294° West  Level Estimated
01:31AM 45.5339 126.5370 294° West  Level Estimated
01:32AM 45.5518 126.4799 294° West  Level Estimated
01:33AM 45.5697 126.4227 294° West  Level Estimated
01:34AM 45.5876 126.3654 294° West  Level Estimated
01:35AM 45.6054 126.3082 294° West  Level Estimated
01:36AM 45.6232 126.2509 294° West  Level Estimated
01:37AM 45.6234 126.2503 294° West  Level Estimated
01:38AM 45.6234 126.2503 335° Northwest  Level Estimated
01:39AM 45.6234 126.2503 335° Northwest  Level Estimated
01:40AM 45.6234 126.2503 335° Northwest  Level Estimated
01:41AM 45.6234 126.2503 335° Northwest  Level Estimated
01:42AM 45.6234 126.2503 335° Northwest  Level Estimated
01:43AM 45.6234 126.2503 335° Northwest  Level Estimated
01:44AM 45.6234 126.2503 335° Northwest  Level Estimated
01:45AM 45.6234 126.2503 335° Northwest  Level Estimated
01:46AM 45.6234 126.2503 335° Northwest  Level Estimated
01:47AM 45.6234 126.2503 335° Northwest  Level Estimated
01:48AM 45.6234 126.2503 335° Northwest  Level Estimated